createdAt,value
2017-11-30T00:08:19.219Z,3.11
2017-11-30T00:28:54.184Z,2.96
2017-11-30T00:49:25.466Z,3.11
2017-11-30T01:10:00.734Z,3.01
2017-11-30T01:30:33.857Z,3.04
2017-11-30T01:51:10.049Z,2.97
2017-11-30T02:11:46.685Z,2.93
2017-11-30T02:32:23.773Z,2.74
2017-11-30T02:52:58.932Z,2.53
2017-11-30T03:13:30.217Z,2.24
2017-11-30T03:34:05.484Z,2.29
2017-11-30T03:54:39.529Z,2.49
2017-11-30T04:15:15.721Z,2.54
2017-11-30T04:35:53.304Z,2.52
2017-11-30T04:56:29.337Z,2.43
2017-11-30T05:17:02.470Z,2.42
2017-11-30T05:37:38.656Z,2.01
2017-11-30T05:58:13.005Z,1.87
2017-11-30T06:18:44.279Z,1.60
2017-11-30T06:39:19.249Z,1.81
2017-11-30T06:59:56.019Z,1.74
2017-11-30T07:20:32.860Z,2.05
2017-11-30T07:41:09.393Z,2.00
2017-11-30T08:01:43.400Z,2.30
2017-11-30T08:22:16.525Z,2.11
2017-11-30T08:42:51.793Z,2.51
2017-11-30T09:03:27.982Z,2.67
2017-11-30T09:24:00.186Z,2.79
2017-11-30T09:44:35.464Z,2.78
2017-11-30T10:05:09.915Z,2.74
2017-11-30T10:25:48.185Z,2.81
2017-11-30T10:46:21.395Z,3.64
2017-11-30T11:06:56.626Z,3.92
2017-11-30T11:27:33.656Z,4.32
2017-11-30T11:48:08.933Z,4.67
2017-11-30T12:08:43.326Z,4.82
2017-11-30T12:29:18.311Z,4.73
2017-11-30T12:49:53.553Z,4.55
2017-11-30T13:10:30.629Z,4.56
2017-11-30T13:31:08.664Z,4.55
2017-11-30T13:51:43.320Z,4.29
2017-11-30T14:12:16.437Z,4.05
2017-11-30T14:32:50.485Z,4.16
2017-11-30T14:53:26.174Z,3.72
2017-11-30T15:14:05.025Z,3.55
2017-11-30T15:34:37.525Z,3.45
2017-11-30T15:55:12.800Z,3.43
2017-11-30T16:15:45.924Z,3.48
2017-11-30T16:36:22.123Z,3.18
2017-11-30T16:56:59.225Z,3.05
2017-11-30T17:17:34.492Z,2.78
2017-11-30T17:38:09.036Z,3.04
2017-11-30T17:58:44.266Z,2.98
2017-11-30T18:19:19.086Z,2.85
2017-11-30T18:39:54.730Z,2.85
2017-11-30T19:00:30.547Z,2.78
2017-11-30T19:21:04.899Z,2.73
2017-11-30T19:41:40.439Z,2.25
2017-11-30T20:02:16.371Z,1.85
2017-11-30T20:22:53.912Z,1.92
2017-11-30T20:43:27.855Z,1.93
2017-11-30T21:04:03.160Z,2.09
2017-11-30T21:24:40.549Z,2.05
2017-11-30T21:45:25.329Z,2.14
2017-11-30T22:06:06.126Z,1.95
2017-11-30T22:26:41.404Z,1.85
2017-11-30T22:47:19.729Z,1.84
2017-11-30T23:07:54.704Z,2.11
2017-11-30T23:28:29.055Z,2.16
2017-11-30T23:49:08.429Z,2.16
